Forest Junction, Wisconsin
Current Conditions -  °F | °C
As of 10:45 AM on Thursday 30 Oct 2014 (Local Time) from KATW Reporting Station
Broken Clouds Broken Clouds  
Wind Chill: 38°   Ceiling: 11000
Heat Index: 43°   Visibility: 10mi
Dew Point: 34°   Wind: 8mph
Humidity: 70%   Direction: 260°W
Pressure: 30.08"   Gusts: NA
Location:  44.21°N, 88.14°W
Report Text: KATW 301545Z 26007KT 10SM BKN110 06/01 A3008
Loading
Personal Weather Stations






























Interactive Weather Map
Tropical Storm Tracking
New forecast layout! Learn more

10-Day Weather Forecast

Advertisements
Track Severe Weather on mobile